Time;durP1;ratioP1;P1;durP2;ratioP2;P2;SDS_P1;SDS_P2;PMS_P1;PMS_P2;Temp;Humidity;BMP_temperature;BMP_pressure;BME280_temperature;BME280_humidity;BME280_pressure;Samples;Min_cycle;Max_cycle;Signal;HPM_P1;HPM_P2
2021/05/11 00:00:57;;;;;;;13.03;11.73;;;;;;;;;;5033395;28;20472;-58
2021/05/11 00:03:24;;;;;;;11.10;9.90;;;;;;;;;;5033707;28;20476;-58
2021/05/11 00:05:51;;;;;;;12.30;11.20;;;;;;;;;;5033581;28;20446;-58
2021/05/11 00:08:18;;;;;;;11.43;10.33;;;;;;;;;;5033364;28;20840;-58
2021/05/11 00:10:44;;;;;;;11.37;10.27;;;;;;;;;;5033007;28;20460;-58
2021/05/11 00:13:11;;;;;;;11.63;10.43;;;;;;;;;;5033100;28;20796;-58
2021/05/11 00:15:38;;;;;;;10.40;9.50;;;;;;;;;;5033354;28;20848;-58
2021/05/11 00:18:06;;;;;;;11.50;10.30;;;;;;;;;;5033223;28;20441;-58
2021/05/11 00:20:33;;;;;;;10.43;9.63;;;;;;;;;;5032927;28;20475;-57
2021/05/11 00:22:59;;;;;;;10.90;9.90;;;;;;;;;;5033594;28;20433;-57
2021/05/11 00:25:26;;;;;;;12.03;10.93;;;;;;;;;;5037056;28;20441;-57
2021/05/11 00:27:53;;;;;;;11.37;10.10;;;;;;;;;;5037103;28;20532;-57
2021/05/11 00:30:20;;;;;;;11.60;10.40;;;;;;;;;;5037274;28;20528;-57
2021/05/11 00:32:47;;;;;;;12.70;11.60;;;;;;;;;;5037318;28;20444;-58
2021/05/11 00:35:14;;;;;;;11.50;10.47;;;;;;;;;;5037273;28;20455;-57
2021/05/11 00:37:41;;;;;;;12.70;11.33;;;;;;;;;;5036804;28;20453;-58
2021/05/11 00:40:09;;;;;;;12.67;11.57;;;;;;;;;;5036719;28;20440;-58
2021/05/11 00:42:36;;;;;;;12.27;11.20;;;;;;;;;;5036565;28;20842;-57
2021/05/11 00:45:03;;;;;;;12.33;11.30;;;;;;;;;;5036561;28;20925;-57
2021/05/11 00:47:30;;;;;;;12.47;11.40;;;;;;;;;;5036782;28;20448;-58
2021/05/11 00:49:56;;;;;;;13.20;11.90;;;;;;;;;;5036452;28;21074;-57
2021/05/11 00:52:24;;;;;;;14.17;12.80;;;;;;;;;;5036767;28;20874;-58
2021/05/11 00:54:51;;;;;;;12.93;11.63;;;;;;;;;;5037109;28;20452;-58
2021/05/11 00:57:18;;;;;;;13.07;11.93;;;;;;;;;;5036630;28;20483;-58
2021/05/11 00:59:45;;;;;;;12.93;11.63;;;;;;;;;;5036302;28;20957;-58
2021/05/11 01:02:13;;;;;;;16.13;12.43;;;;;;;;;;5036223;28;20468;-58
2021/05/11 01:04:39;;;;;;;14.60;13.20;;;;;;;;;;5036435;28;20452;-58
2021/05/11 01:07:06;;;;;;;14.80;13.50;;;;;;;;;;5037225;28;20449;-58
2021/05/11 01:09:34;;;;;;;14.50;13.10;;;;;;;;;;5036328;28;20481;-57
2021/05/11 01:12:01;;;;;;;16.10;14.13;;;;;;;;;;5036379;28;20460;-58
2021/05/11 01:14:28;;;;;;;17.23;15.63;;;;;;;;;;5036261;28;20503;-58
2021/05/11 01:16:57;;;;;;;15.37;14.00;;;;;;;;;;5035933;28;20492;-57
2021/05/11 01:19:26;;;;;;;15.40;14.00;;;;;;;;;;5036159;28;20921;-58
2021/05/11 01:21:59;;;;;;;15.60;14.30;;;;;;;;;;5051377;22;20500;-62
2021/05/11 01:24:30;;;;;;;17.43;15.80;;;;;;;;;;5036516;28;20853;-62
2021/05/11 01:27:00;;;;;;;16.73;15.13;;;;;;;;;;5036964;28;20437;-61
2021/05/11 01:29:38;;;;;;;16.00;14.53;;;;;;;;;;5036746;28;20900;-62
2021/05/11 01:48:41;;;;;;;17.13;15.40;;;;;;;;;;5036379;28;20464;-62
2021/05/11 01:51:17;;;;;;;18.30;16.50;;;;;;;;;;5035749;28;20433;-63
2021/05/11 01:54:00;;;;;;;18.27;16.47;;;;;;;;;;5035913;28;20863;-61
2021/05/11 02:10:35;;;;;;;18.57;16.87;;;;;;;;;;5035749;28;20518;-62
2021/05/11 02:23:58;;;;;;;19.60;17.70;;;;;;;;;;5044564;28;20495;-61
2021/05/11 02:26:25;;;;;;;20.90;18.90;;;;;;;;;;5035477;28;20482;-61
2021/05/11 02:28:53;;;;;;;20.60;18.63;;;;;;;;;;5034842;28;20477;-61
2021/05/11 02:31:20;;;;;;;20.20;18.20;;;;;;;;;;5035257;28;20547;-61
2021/05/11 02:33:46;;;;;;;18.73;16.93;;;;;;;;;;5035070;28;20452;-61
2021/05/11 02:36:13;;;;;;;19.50;17.70;;;;;;;;;;5035112;28;20449;-61
2021/05/11 02:38:40;;;;;;;20.63;18.47;;;;;;;;;;5035174;28;20444;-61
2021/05/11 02:41:07;;;;;;;19.50;17.70;;;;;;;;;;5035033;28;20449;-61
2021/05/11 02:43:36;;;;;;;19.67;17.83;;;;;;;;;;5034913;28;20525;-61
2021/05/11 02:46:03;;;;;;;15.90;14.50;;;;;;;;;;5034416;28;20445;-61
2021/05/11 02:48:30;;;;;;;18.07;16.30;;;;;;;;;;5041616;28;20484;-61
2021/05/11 02:50:57;;;;;;;16.00;14.40;;;;;;;;;;5039139;28;20448;-61
2021/05/11 02:53:24;;;;;;;17.70;16.00;;;;;;;;;;5038477;28;20448;-62
2021/05/11 02:55:50;;;;;;;16.80;15.20;;;;;;;;;;5037819;28;20796;-62
2021/05/11 02:58:17;;;;;;;18.13;15.63;;;;;;;;;;5037038;28;20464;-62
2021/05/11 03:00:45;;;;;;;17.07;15.47;;;;;;;;;;5037289;28;20506;-62
2021/05/11 03:03:13;;;;;;;17.40;15.80;;;;;;;;;;5037573;28;20582;-62
2021/05/11 03:05:39;;;;;;;18.13;16.23;;;;;;;;;;5036623;28;20445;-62
2021/05/11 03:08:06;;;;;;;16.10;14.50;;;;;;;;;;5036387;28;20453;-62
2021/05/11 03:10:33;;;;;;;16.93;15.33;;;;;;;;;;5036713;28;20449;-61
2021/05/11 03:13:00;;;;;;;15.07;13.73;;;;;;;;;;5036063;28;20464;-61
2021/05/11 03:15:27;;;;;;;15.70;14.30;;;;;;;;;;5036093;28;20853;-61
2021/05/11 03:17:53;;;;;;;15.40;13.90;;;;;;;;;;5036013;28;20453;-61
2021/05/11 03:20:21;;;;;;;13.40;12.00;;;;;;;;;;5035470;28;20444;-60
2021/05/11 03:22:48;;;;;;;13.73;12.43;;;;;;;;;;5035030;28;20473;-61
2021/05/11 03:25:14;;;;;;;17.10;13.40;;;;;;;;;;5035329;28;20449;-61
2021/05/11 03:27:41;;;;;;;15.63;14.23;;;;;;;;;;5034873;28;20448;-61
2021/05/11 03:30:08;;;;;;;16.20;14.50;;;;;;;;;;5035256;28;20477;-61
2021/05/11 03:32:35;;;;;;;16.30;14.80;;;;;;;;;;5035031;28;20519;-62
2021/05/11 03:35:02;;;;;;;17.00;15.30;;;;;;;;;;5034503;28;20503;-62
2021/05/11 03:37:30;;;;;;;17.63;16.03;;;;;;;;;;5033960;28;20448;-62
2021/05/11 03:39:56;;;;;;;17.50;15.80;;;;;;;;;;5033684;28;20460;-62
2021/05/11 03:42:26;;;;;;;18.17;16.40;;;;;;;;;;5033981;28;20830;-61
2021/05/11 03:44:56;;;;;;;18.13;16.43;;;;;;;;;;5033482;28;20892;-61
2021/05/11 03:47:24;;;;;;;17.77;16.07;;;;;;;;;;5033702;28;20459;-62
2021/05/11 03:49:50;;;;;;;17.70;15.90;;;;;;;;;;5033488;28;20481;-62
2021/05/11 03:52:17;;;;;;;17.93;16.20;;;;;;;;;;5033571;28;20468;-62
2021/05/11 03:54:45;;;;;;;18.07;16.20;;;;;;;;;;5033543;28;20455;-62
2021/05/11 03:57:12;;;;;;;18.30;16.60;;;;;;;;;;5037918;28;20457;-61
2021/05/11 03:59:39;;;;;;;17.10;15.43;;;;;;;;;;5033839;28;20445;-62
2021/05/11 04:02:06;;;;;;;16.63;15.03;;;;;;;;;;5032905;28;20465;-61
2021/05/11 04:08:05;;;;;;;13.53;12.23;;;;;;;;;;5112246;27;20864;-62
2021/05/11 04:10:34;;;;;;;13.37;12.17;;;;;;;;;;5111691;28;20462;-62
2021/05/11 04:13:22;;;;;;;11.70;10.60;;;;;;;;;;5111264;28;20465;-61
2021/05/11 04:18:34;;;;;;;10.50;9.50;;;;;;;;;;5111719;28;20439;-62
2021/05/11 04:21:01;;;;;;;10.20;9.00;;;;;;;;;;5111139;28;20448;-63
2021/05/11 04:23:28;;;;;;;11.00;9.87;;;;;;;;;;5111296;28;20449;-62
2021/05/11 04:25:55;;;;;;;9.97;8.97;;;;;;;;;;5111734;28;20487;-63
2021/05/11 04:28:22;;;;;;;9.90;8.90;;;;;;;;;;5112346;28;20437;-62
2021/05/11 04:30:49;;;;;;;8.57;7.67;;;;;;;;;;5112449;28;20441;-62
2021/05/11 04:33:15;;;;;;;9.83;8.60;;;;;;;;;;5112940;28;20545;-61
2021/05/11 04:35:42;;;;;;;11.00;9.07;;;;;;;;;;5117748;28;20453;-62
2021/05/11 04:38:09;;;;;;;8.70;7.90;;;;;;;;;;5118257;28;20452;-63
2021/05/11 04:40:36;;;;;;;9.33;8.03;;;;;;;;;;5120081;28;20456;-62
2021/05/11 04:43:05;;;;;;;8.63;7.83;;;;;;;;;;5119258;28;20464;-59
2021/05/11 04:45:33;;;;;;;7.67;6.97;;;;;;;;;;5119551;28;20445;-62
2021/05/11 04:48:00;;;;;;;9.10;6.90;;;;;;;;;;5119462;28;20561;-60
2021/05/11 04:50:27;;;;;;;7.37;6.63;;;;;;;;;;5118419;28;20502;-61
2021/05/11 04:52:54;;;;;;;7.73;6.83;;;;;;;;;;5120826;28;20491;-62
2021/05/11 04:55:21;;;;;;;10.93;5.93;;;;;;;;;;5119276;28;20443;-61
2021/05/11 04:57:49;;;;;;;6.90;6.30;;;;;;;;;;5114866;28;20456;-62
2021/05/11 05:00:16;;;;;;;6.53;5.83;;;;;;;;;;5114618;28;20448;-60
2021/05/11 05:02:45;;;;;;;6.17;5.67;;;;;;;;;;5114265;28;20461;-63
2021/05/11 05:05:12;;;;;;;5.60;5.10;;;;;;;;;;5117574;28;20955;-62
2021/05/11 05:07:39;;;;;;;5.63;5.13;;;;;;;;;;5115946;28;20480;-62
2021/05/11 05:10:07;;;;;;;7.07;6.33;;;;;;;;;;5115571;28;20453;-62
2021/05/11 05:12:34;;;;;;;7.67;6.60;;;;;;;;;;5114277;28;20460;-62
2021/05/11 05:15:01;;;;;;;9.07;8.17;;;;;;;;;;5114891;28;21005;-62
2021/05/11 05:17:28;;;;;;;10.70;8.00;;;;;;;;;;5109989;28;20438;-62
2021/05/11 05:19:55;;;;;;;8.90;8.10;;;;;;;;;;5098650;28;20449;-64
2021/05/11 05:22:22;;;;;;;10.50;9.37;;;;;;;;;;5098664;28;20473;-60
2021/05/11 05:24:51;;;;;;;10.40;9.47;;;;;;;;;;5099369;28;20453;-62
2021/05/11 05:27:20;;;;;;;10.20;9.27;;;;;;;;;;5097078;28;20477;-62
2021/05/11 05:29:47;;;;;;;13.10;11.40;;;;;;;;;;5105343;28;20450;-62
2021/05/11 05:32:15;;;;;;;11.13;10.10;;;;;;;;;;5104890;28;20959;-62
2021/05/11 05:34:42;;;;;;;11.33;10.20;;;;;;;;;;5096430;28;20451;-63
2021/05/11 05:37:09;;;;;;;10.23;9.33;;;;;;;;;;5097022;28;20442;-63
2021/05/11 05:39:39;;;;;;;8.93;8.20;;;;;;;;;;5096650;28;20449;-63
2021/05/11 05:42:06;;;;;;;10.27;9.17;;;;;;;;;;5096415;28;20894;-63
2021/05/11 05:44:33;;;;;;;9.80;8.90;;;;;;;;;;5095926;28;20456;-63
2021/05/11 05:46:59;;;;;;;8.60;7.90;;;;;;;;;;5095933;28;20819;-61
2021/05/11 05:49:31;;;;;;;8.90;8.07;;;;;;;;;;5096274;28;20790;-63
2021/05/11 05:52:02;;;;;;;9.40;8.60;;;;;;;;;;5096575;28;20488;-62
2021/05/11 05:54:29;;;;;;;8.43;7.73;;;;;;;;;;5096642;28;20437;-62
2021/05/11 05:56:56;;;;;;;8.30;7.47;;;;;;;;;;5096364;28;20492;-62
2021/05/11 05:59:23;;;;;;;8.40;7.60;;;;;;;;;;5096389;28;20473;-62
2021/05/11 06:01:52;;;;;;;7.50;6.80;;;;;;;;;;5096095;28;20465;-62
2021/05/11 06:04:20;;;;;;;7.93;7.13;;;;;;;;;;5095725;28;20975;-63
2021/05/11 06:06:49;;;;;;;7.20;6.60;;;;;;;;;;5095969;28;20482;-62
2021/05/11 06:09:16;;;;;;;8.50;7.10;;;;;;;;;;5096326;28;20449;-63
2021/05/11 06:11:46;;;;;;;7.57;6.87;;;;;;;;;;5095682;28;20494;-63
2021/05/11 06:14:19;;;;;;;6.80;6.10;;;;;;;;;;5095759;28;20477;-63
2021/05/11 06:17:13;;;;;;;8.30;6.67;;;;;;;;;;5095675;28;20427;-63
2021/05/11 06:19:40;;;;;;;6.77;6.17;;;;;;;;;;5095282;28;20430;-63
2021/05/11 06:22:07;;;;;;;6.23;5.60;;;;;;;;;;5095078;28;20458;-63
2021/05/11 06:24:34;;;;;;;6.07;5.47;;;;;;;;;;5095225;28;20481;-62
2021/05/11 06:27:01;;;;;;;6.60;6.00;;;;;;;;;;5094878;28;20478;-63
2021/05/11 06:29:30;;;;;;;9.60;5.50;;;;;;;;;;5094523;28;20973;-62
2021/05/11 06:31:57;;;;;;;6.63;6.07;;;;;;;;;;5095012;28;20470;-62
2021/05/11 06:34:24;;;;;;;5.87;5.30;;;;;;;;;;5095158;28;20464;-62
2021/05/11 06:36:50;;;;;;;6.03;5.43;;;;;;;;;;5095182;28;20809;-62
2021/05/11 06:39:18;;;;;;;5.83;5.33;;;;;;;;;;5096442;28;20517;-63
2021/05/11 06:41:48;;;;;;;6.97;6.27;;;;;;;;;;5095530;28;20515;-63
2021/05/11 06:44:23;;;;;;;7.33;6.30;;;;;;;;;;5095620;28;20533;-62
2021/05/11 06:50:09;;;;;;;6.07;5.50;;;;;;;;;;5095573;28;20417;-62
2021/05/11 06:55:30;;;;;;;5.73;5.23;;;;;;;;;;5070745;28;20947;-62
2021/05/11 06:57:57;;;;;;;5.30;4.80;;;;;;;;;;5096594;28;20442;-63
2021/05/11 07:00:24;;;;;;;6.77;4.90;;;;;;;;;;5099276;28;20437;-61
2021/05/11 07:02:52;;;;;;;5.40;4.90;;;;;;;;;;5099573;28;20463;-61
2021/05/11 07:05:18;;;;;;;4.87;4.47;;;;;;;;;;5098358;28;20430;-62
2021/05/11 07:07:45;;;;;;;6.10;5.33;;;;;;;;;;5098631;28;20993;-62
2021/05/11 07:10:19;;;;;;;9.77;5.60;;;;;;;;;;5098214;28;20499;-62
2021/05/11 07:15:31;;;;;;;5.50;4.93;;;;;;;;;;5099720;28;20399;-62
2021/05/11 07:18:08;;;;;;;5.70;5.20;;;;;;;;;;5097923;28;20445;-63
2021/05/11 07:20:35;;;;;;;6.10;5.60;;;;;;;;;;5094978;28;20453;-62
2021/05/11 07:23:01;;;;;;;5.30;4.80;;;;;;;;;;5103850;22;20496;-60
2021/05/11 07:25:32;;;;;;;4.50;4.10;;;;;;;;;;5033626;28;20809;-61
2021/05/11 07:30:53;;;;;;;4.83;4.20;;;;;;;;;;5033928;28;20413;-60
2021/05/11 07:33:21;;;;;;;5.53;4.70;;;;;;;;;;5033878;28;20478;-60
2021/05/11 07:35:48;;;;;;;5.47;4.47;;;;;;;;;;5034006;28;20449;-61
2021/05/11 07:38:14;;;;;;;5.23;4.80;;;;;;;;;;5034673;28;20443;-59
2021/05/11 07:40:41;;;;;;;5.40;4.47;;;;;;;;;;5033553;28;20936;-61
2021/05/11 07:43:10;;;;;;;4.60;4.20;;;;;;;;;;5033073;28;20976;-61
2021/05/11 07:46:00;;;;;;;4.50;4.20;;;;;;;;;;5033362;28;20441;-61
2021/05/11 07:48:48;;;;;;;4.30;3.90;;;;;;;;;;5033235;28;20422;-61
2021/05/11 08:05:15;;;;;;;4.97;3.53;;;;;;;;;;5033033;28;20955;-60
2021/05/11 08:16:02;;;;;;;5.00;3.30;;;;;;;;;;5033089;28;20403;-60
2021/05/11 08:18:34;;;;;;;9.00;3.57;;;;;;;;;;5033590;28;20434;-59
2021/05/11 08:29:27;;;;;;;5.80;3.30;;;;;;;;;;5033116;28;20909;-59
2021/05/11 08:31:55;;;;;;;3.40;3.10;;;;;;;;;;5032920;28;20437;-60
2021/05/11 08:34:22;;;;;;;3.53;3.23;;;;;;;;;;5032679;28;20486;-59
2021/05/11 08:36:49;;;;;;;4.63;3.40;;;;;;;;;;5032595;28;20959;-61
2021/05/11 08:39:16;;;;;;;10.40;3.77;;;;;;;;;;5032757;28;20463;-60
2021/05/11 08:41:42;;;;;;;2.87;2.67;;;;;;;;;;5032598;28;20454;-58
2021/05/11 08:44:13;;;;;;;3.13;2.73;;;;;;;;;;5032854;28;20519;-58
2021/05/11 08:46:41;;;;;;;4.80;2.73;;;;;;;;;;5033025;28;20471;-60
2021/05/11 08:49:11;;;;;;;2.70;2.43;;;;;;;;;;5032847;28;20983;-60
2021/05/11 08:51:49;;;;;;;2.40;2.20;;;;;;;;;;5032312;28;20516;-59
2021/05/11 08:54:25;;;;;;;3.87;2.40;;;;;;;;;;5035215;28;20964;-60
2021/05/11 09:05:17;;;;;;;2.70;2.50;;;;;;;;;;5036406;28;20459;-60
2021/05/11 09:07:59;;;;;;;3.63;2.43;;;;;;;;;;5035927;28;20457;-59
2021/05/11 09:24:50;;;;;;;3.63;2.13;;;;;;;;;;4975027;28;20451;-58
2021/05/11 09:27:23;;;;;;;3.60;2.40;;;;;;;;;;5018205;28;20573;-59
2021/05/11 09:30:06;;;;;;;2.63;2.43;;;;;;;;;;5035973;28;20437;-59
2021/05/11 09:32:46;;;;;;;2.93;2.23;;;;;;;;;;5035724;28;20469;-59
2021/05/11 09:54:45;;;;;;;2.03;1.90;;;;;;;;;;5023209;28;20484;-58
2021/05/11 10:31:35;;;;;;;3.40;2.40;;;;;;;;;;5035150;28;20397;-58
2021/05/11 10:40:33;;;;;;;1.90;1.80;;;;;;;;;;5034513;28;20931;-58
2021/05/11 10:48:36;;;;;;;2.60;1.80;;;;;;;;;;5033957;28;20449;-58
2021/05/11 10:51:04;;;;;;;1.97;1.57;;;;;;;;;;5034928;28;20425;-59
2021/05/11 10:53:51;;;;;;;2.83;1.90;;;;;;;;;;5034492;28;20864;-58
2021/05/11 10:56:58;;;;;;;4.50;1.83;;;;;;;;;;5034514;28;20456;-59
2021/05/11 10:59:40;;;;;;;2.20;1.80;;;;;;;;;;5034069;28;20438;-60
2021/05/11 11:02:35;;;;;;;4.10;2.80;;;;;;;;;;5033471;28;20465;-60
2021/05/11 11:05:02;;;;;;;3.20;2.03;;;;;;;;;;5034331;28;20837;-57
2021/05/11 11:07:36;;;;;;;2.80;2.03;;;;;;;;;;5033919;28;20540;-59
2021/05/11 11:10:06;;;;;;;5.73;2.47;;;;;;;;;;5033905;28;20450;-59
2021/05/11 11:12:35;;;;;;;2.47;1.77;;;;;;;;;;5033756;28;20489;-59
2021/05/11 11:15:04;;;;;;;23.67;6.27;;;;;;;;;;5034212;28;20584;-58
2021/05/11 11:17:31;;;;;;;4.47;1.97;;;;;;;;;;5033631;28;20445;-59
2021/05/11 11:20:01;;;;;;;2.17;1.63;;;;;;;;;;5033444;28;20454;-59
2021/05/11 11:25:14;;;;;;;3.37;1.47;;;;;;;;;;5033602;28;20441;-59
2021/05/11 11:27:41;;;;;;;2.10;1.90;;;;;;;;;;5033647;28;20516;-58
2021/05/11 11:30:09;;;;;;;5.00;2.00;;;;;;;;;;5033643;28;20531;-59
2021/05/11 11:32:37;;;;;;;5.30;2.47;;;;;;;;;;5033365;28;21046;-58
2021/05/11 11:35:05;;;;;;;2.90;1.60;;;;;;;;;;5033706;28;20565;-57
2021/05/11 11:37:31;;;;;;;3.13;2.57;;;;;;;;;;5033541;28;20515;-58
2021/05/11 11:40:00;;;;;;;3.30;1.60;;;;;;;;;;5033526;28;20455;-57
2021/05/11 11:42:27;;;;;;;2.60;1.63;;;;;;;;;;5033332;28;20499;-59
2021/05/11 11:44:57;;;;;;;4.77;2.40;;;;;;;;;;5033366;28;20461;-57
2021/05/11 11:47:24;;;;;;;2.70;2.10;;;;;;;;;;5033102;28;20536;-58
2021/05/11 11:49:54;;;;;;;3.10;2.03;;;;;;;;;;5033365;28;20452;-58
2021/05/11 11:52:25;;;;;;;2.67;1.93;;;;;;;;;;5033509;28;20499;-57
2021/05/11 11:55:11;;;;;;;3.63;2.07;;;;;;;;;;5033099;28;20908;-58
2021/05/11 11:57:45;;;;;;;2.13;1.90;;;;;;;;;;5033512;28;20431;-59
2021/05/11 12:00:13;;;;;;;3.43;1.90;;;;;;;;;;5033190;28;20468;-57
2021/05/11 12:02:51;;;;;;;4.43;2.27;;;;;;;;;;5033369;28;20465;-58
2021/05/11 12:05:18;;;;;;;2.30;1.73;;;;;;;;;;5033093;28;20425;-58
2021/05/11 12:07:58;;;;;;;2.43;1.93;;;;;;;;;;5032860;28;20541;-59
2021/05/11 12:10:25;;;;;;;2.53;2.10;;;;;;;;;;5032866;28;20853;-58
2021/05/11 12:12:52;;;;;;;2.23;1.60;;;;;;;;;;5033082;28;20515;-60
2021/05/11 12:15:20;;;;;;;2.83;1.60;;;;;;;;;;5032875;28;20458;-58
2021/05/11 12:17:48;;;;;;;3.33;2.43;;;;;;;;;;5033114;28;20447;-57
2021/05/11 12:20:25;;;;;;;4.07;1.73;;;;;;;;;;5032820;28;20444;-55
2021/05/11 12:23:02;;;;;;;2.47;1.73;;;;;;;;;;5032549;28;20476;-57
2021/05/11 12:25:29;;;;;;;3.83;2.13;;;;;;;;;;5032640;28;20455;-58
2021/05/11 12:27:57;;;;;;;4.13;1.83;;;;;;;;;;5033465;28;20820;-57
2021/05/11 12:30:35;;;;;;;3.03;1.90;;;;;;;;;;5036824;28;20494;-58
2021/05/11 12:33:03;;;;;;;2.60;1.77;;;;;;;;;;5036749;28;20471;-58
2021/05/11 12:35:31;;;;;;;4.13;1.70;;;;;;;;;;5036935;28;20483;-59
2021/05/11 12:38:00;;;;;;;2.80;2.33;;;;;;;;;;5036821;28;20443;-60
2021/05/11 12:40:42;;;;;;;2.00;1.70;;;;;;;;;;5036734;28;20509;-59
2021/05/11 12:43:08;;;;;;;4.17;2.23;;;;;;;;;;5036276;28;20475;-58
2021/05/11 12:45:49;;;;;;;4.10;1.80;;;;;;;;;;5036218;28;20521;-58
2021/05/11 12:48:16;;;;;;;4.07;2.00;;;;;;;;;;5036396;28;20467;-59
2021/05/11 12:50:45;;;;;;;3.00;1.70;;;;;;;;;;5036699;28;20446;-59
2021/05/11 12:53:26;;;;;;;3.50;2.10;;;;;;;;;;5036340;28;20469;-59
2021/05/11 12:56:03;;;;;;;5.87;2.00;;;;;;;;;;5037184;28;20450;-59
2021/05/11 12:58:42;;;;;;;2.80;2.00;;;;;;;;;;5036624;28;20427;-60
2021/05/11 13:01:24;;;;;;;3.27;2.20;;;;;;;;;;5036932;28;20816;-59
2021/05/11 13:04:11;;;;;;;4.50;2.00;;;;;;;;;;5034552;28;20479;-59
2021/05/11 13:15:12;;;;;;;3.50;2.50;;;;;;;;;;5015726;28;20803;-58
2021/05/11 13:20:38;;;;;;;4.23;2.60;;;;;;;;;;5035917;28;20444;-59
2021/05/11 13:23:18;;;;;;;4.07;2.40;;;;;;;;;;5035846;28;20498;-57
2021/05/11 13:25:47;;;;;;;3.73;2.00;;;;;;;;;;5035894;28;20933;-59
2021/05/11 13:28:17;;;;;;;3.87;2.60;;;;;;;;;;5035741;28;21014;-59
2021/05/11 13:30:50;;;;;;;3.73;2.63;;;;;;;;;;5035666;28;20961;-58
2021/05/11 13:33:27;;;;;;;3.53;2.13;;;;;;;;;;5035223;28;20477;-59
2021/05/11 13:35:54;;;;;;;5.20;3.17;;;;;;;;;;5035341;28;20438;-58
2021/05/11 13:38:22;;;;;;;2.23;2.03;;;;;;;;;;5035029;28;20594;-59
2021/05/11 13:40:49;;;;;;;4.23;2.60;;;;;;;;;;5035032;28;20444;-61
2021/05/11 13:43:16;;;;;;;3.13;2.13;;;;;;;;;;5034745;28;20471;-59
2021/05/11 13:45:42;;;;;;;2.23;2.03;;;;;;;;;;5035232;28;20501;-59
2021/05/11 13:48:14;;;;;;;5.23;2.20;;;;;;;;;;5035671;28;20534;-59
2021/05/11 13:50:52;;;;;;;2.83;2.20;;;;;;;;;;5035382;28;20509;-59
2021/05/11 13:53:22;;;;;;;2.60;2.00;;;;;;;;;;5035019;28;20479;-60
2021/05/11 13:55:59;;;;;;;3.30;2.67;;;;;;;;;;5035562;28;20459;-60
2021/05/11 14:01:38;;;;;;;5.67;2.90;;;;;;;;;;5035087;28;20431;-60
2021/05/11 14:04:07;;;;;;;5.70;2.30;;;;;;;;;;5034754;28;20466;-57
2021/05/11 14:06:33;;;;;;;3.47;2.30;;;;;;;;;;5034634;28;20450;-59
2021/05/11 14:09:01;;;;;;;2.47;2.13;;;;;;;;;;5035123;28;20452;-60
2021/05/11 14:11:31;;;;;;;3.60;2.60;;;;;;;;;;5035130;28;20565;-60
2021/05/11 14:13:58;;;;;;;2.67;2.10;;;;;;;;;;5035107;28;20468;-59
2021/05/11 14:16:24;;;;;;;3.57;2.20;;;;;;;;;;5034919;28;20449;-59
2021/05/11 14:18:51;;;;;;;3.20;2.23;;;;;;;;;;5034487;28;20940;-60
2021/05/11 14:21:18;;;;;;;3.70;2.93;;;;;;;;;;5035023;28;20511;-59
2021/05/11 14:23:45;;;;;;;4.20;3.37;;;;;;;;;;5035626;28;20490;-59
2021/05/11 14:26:12;;;;;;;4.47;2.10;;;;;;;;;;5035060;28;20456;-59
2021/05/11 14:28:39;;;;;;;2.60;2.20;;;;;;;;;;5034646;28;21054;-60
2021/05/11 14:31:06;;;;;;;3.93;2.50;;;;;;;;;;5034698;28;20456;-60
2021/05/11 14:33:33;;;;;;;4.13;2.60;;;;;;;;;;5035470;28;20475;-59
2021/05/11 14:36:00;;;;;;;2.50;2.30;;;;;;;;;;5034796;28;20475;-58
2021/05/11 14:38:27;;;;;;;4.17;2.97;;;;;;;;;;5034296;28;20453;-60
2021/05/11 14:41:01;;;;;;;3.20;2.90;;;;;;;;;;5034139;28;20870;-60
2021/05/11 14:43:27;;;;;;;3.07;2.77;;;;;;;;;;5034579;28;20900;-60
2021/05/11 14:45:55;;;;;;;6.20;2.77;;;;;;;;;;5034451;28;20456;-61
2021/05/11 14:48:22;;;;;;;3.10;2.60;;;;;;;;;;5034310;28;20483;-59
2021/05/11 14:50:49;;;;;;;3.73;3.33;;;;;;;;;;5034430;28;20452;-60
2021/05/11 14:53:15;;;;;;;3.90;3.20;;;;;;;;;;5034666;28;20579;-59
2021/05/11 14:55:42;;;;;;;5.20;3.07;;;;;;;;;;5034512;28;20448;-60
2021/05/11 14:58:09;;;;;;;3.10;2.67;;;;;;;;;;5034339;28;20452;-58
2021/05/11 15:00:36;;;;;;;4.10;2.60;;;;;;;;;;5033961;28;20518;-60
2021/05/11 15:03:05;;;;;;;5.93;3.33;;;;;;;;;;5033927;28;20807;-59
2021/05/11 15:05:32;;;;;;;2.83;2.50;;;;;;;;;;5033853;28;20948;-60
2021/05/11 15:07:59;;;;;;;3.50;2.33;;;;;;;;;;5034136;28;20503;-59
2021/05/11 15:10:25;;;;;;;3.23;2.93;;;;;;;;;;5034027;28;20444;-59
2021/05/11 15:12:52;;;;;;;6.13;2.70;;;;;;;;;;5034903;28;20472;-59
2021/05/11 15:15:20;;;;;;;3.80;2.50;;;;;;;;;;5033898;28;20459;-59
2021/05/11 15:18:02;;;;;;;5.03;2.73;;;;;;;;;;5033862;28;20593;-59
2021/05/11 15:20:31;;;;;;;3.20;2.70;;;;;;;;;;5033506;28;20534;-59
2021/05/11 15:22:57;;;;;;;2.90;2.70;;;;;;;;;;5032978;28;21013;-60
2021/05/11 15:25:26;;;;;;;4.90;2.70;;;;;;;;;;5034555;28;20558;-60
2021/05/11 15:27:54;;;;;;;5.00;2.73;;;;;;;;;;5033300;28;20569;-58
2021/05/11 15:30:21;;;;;;;5.43;3.10;;;;;;;;;;5033221;28;20940;-60
2021/05/11 15:32:51;;;;;;;3.40;2.90;;;;;;;;;;5033298;28;20462;-60
2021/05/11 15:35:19;;;;;;;4.00;2.70;;;;;;;;;;5033554;28;20441;-59
2021/05/11 15:37:49;;;;;;;3.77;2.67;;;;;;;;;;5033542;28;20448;-59
2021/05/11 15:40:17;;;;;;;5.47;3.13;;;;;;;;;;5033024;28;20439;-61
2021/05/11 15:42:44;;;;;;;4.80;3.30;;;;;;;;;;5033346;28;20530;-60
2021/05/11 15:45:12;;;;;;;6.83;3.13;;;;;;;;;;5067994;22;20545;-60
2021/05/11 15:47:51;;;;;;;3.40;2.60;;;;;;;;;;5034143;28;20831;-61
2021/05/11 15:50:18;;;;;;;4.30;3.20;;;;;;;;;;5034167;28;20439;-61
2021/05/11 15:52:45;;;;;;;4.13;3.03;;;;;;;;;;5033873;28;20831;-60
2021/05/11 15:55:13;;;;;;;4.13;2.77;;;;;;;;;;5033961;28;20467;-61
2021/05/11 15:57:40;;;;;;;3.90;2.30;;;;;;;;;;5034381;28;20451;-62
2021/05/11 16:00:07;;;;;;;4.13;2.63;;;;;;;;;;5034269;28;20477;-59
2021/05/11 16:02:34;;;;;;;4.83;2.97;;;;;;;;;;5033730;28;20498;-61
2021/05/11 16:05:01;;;;;;;4.10;2.50;;;;;;;;;;5033802;28;21054;-60
2021/05/11 16:07:27;;;;;;;7.80;3.23;;;;;;;;;;5033831;28;21004;-61
2021/05/11 16:09:54;;;;;;;3.03;2.40;;;;;;;;;;5034638;28;20456;-61
2021/05/11 16:12:22;;;;;;;5.50;2.20;;;;;;;;;;5034474;28;21015;-62
2021/05/11 16:14:50;;;;;;;5.17;3.10;;;;;;;;;;5034786;28;20517;-61
2021/05/11 16:17:17;;;;;;;4.17;2.90;;;;;;;;;;5034156;28;20508;-62
2021/05/11 16:19:44;;;;;;;7.27;3.07;;;;;;;;;;5033869;28;20934;-60
2021/05/11 16:22:11;;;;;;;4.00;2.73;;;;;;;;;;5033134;28;20506;-61
2021/05/11 16:24:38;;;;;;;6.18;3.65;;;;;;;;;;5033092;28;20438;-59
2021/05/11 16:27:05;;;;;;;3.27;2.97;;;;;;;;;;5033133;28;20228;-62
2021/05/11 16:29:33;;;;;;;9.53;3.23;;;;;;;;;;5032895;28;20788;-61
2021/05/11 16:31:59;;;;;;;3.30;2.70;;;;;;;;;;5033570;28;20447;-62
2021/05/11 16:34:27;;;;;;;4.40;3.23;;;;;;;;;;5033242;28;20462;-62
2021/05/11 16:36:54;;;;;;;2.97;2.53;;;;;;;;;;5033993;28;20542;-63
2021/05/11 16:39:21;;;;;;;4.70;2.87;;;;;;;;;;5033940;28;20447;-62
2021/05/11 16:41:48;;;;;;;3.73;2.90;;;;;;;;;;5034629;28;20585;-62
2021/05/11 16:44:15;;;;;;;3.70;3.20;;;;;;;;;;5033181;28;20575;-62
2021/05/11 16:46:43;;;;;;;3.83;3.27;;;;;;;;;;5033332;28;20453;-64
2021/05/11 16:49:10;;;;;;;3.97;2.80;;;;;;;;;;5033809;28;20477;-63
2021/05/11 16:51:37;;;;;;;5.23;3.00;;;;;;;;;;5033582;28;20445;-62
2021/05/11 16:54:04;;;;;;;4.33;3.27;;;;;;;;;;5033200;28;20538;-62
2021/05/11 16:56:31;;;;;;;2.73;2.30;;;;;;;;;;5032879;28;20821;-62
2021/05/11 16:58:57;;;;;;;4.43;2.60;;;;;;;;;;5032954;28;20446;-63
2021/05/11 17:01:24;;;;;;;3.27;2.80;;;;;;;;;;5033081;28;20454;-62
2021/05/11 17:03:52;;;;;;;4.53;2.70;;;;;;;;;;5033134;28;20449;-61
2021/05/11 17:06:19;;;;;;;5.07;2.60;;;;;;;;;;5033314;28;20447;-64
2021/05/11 17:08:46;;;;;;;3.10;2.80;;;;;;;;;;5032721;28;20530;-60
2021/05/11 17:11:13;;;;;;;3.83;2.70;;;;;;;;;;5032376;28;20453;-60
2021/05/11 17:13:40;;;;;;;4.20;2.63;;;;;;;;;;5032550;28;20450;-62
2021/05/11 17:16:07;;;;;;;4.97;2.77;;;;;;;;;;5036121;28;20960;-61
2021/05/11 17:18:35;;;;;;;4.43;2.60;;;;;;;;;;5035915;28;20495;-60
2021/05/11 17:21:03;;;;;;;4.07;2.73;;;;;;;;;;5036251;28;20452;-59
2021/05/11 17:23:30;;;;;;;5.50;3.00;;;;;;;;;;5035933;28;20932;-61
2021/05/11 17:25:57;;;;;;;3.13;2.37;;;;;;;;;;5035602;28;20998;-62
2021/05/11 17:28:26;;;;;;;3.50;2.63;;;;;;;;;;5036261;28;20480;-61
2021/05/11 17:30:56;;;;;;;2.93;2.60;;;;;;;;;;5036332;28;20525;-61
2021/05/11 17:33:23;;;;;;;5.53;2.80;;;;;;;;;;5036113;28;20452;-60
2021/05/11 17:35:51;;;;;;;3.30;2.87;;;;;;;;;;5036087;28;20468;-61
2021/05/11 17:38:21;;;;;;;3.00;2.20;;;;;;;;;;5035492;28;21031;-60
2021/05/11 17:40:48;;;;;;;3.57;3.10;;;;;;;;;;5035908;28;20568;-61
2021/05/11 17:43:15;;;;;;;3.03;2.70;;;;;;;;;;5036010;28;20460;-61
2021/05/11 17:45:45;;;;;;;4.70;3.50;;;;;;;;;;5035405;28;20992;-61
2021/05/11 17:48:12;;;;;;;5.07;3.20;;;;;;;;;;5035561;28;20994;-61
2021/05/11 17:50:40;;;;;;;3.77;3.20;;;;;;;;;;5035857;28;20857;-61
2021/05/11 17:53:07;;;;;;;3.93;3.33;;;;;;;;;;5036191;28;20483;-61
2021/05/11 17:55:36;;;;;;;5.80;3.20;;;;;;;;;;5035584;28;20881;-61
2021/05/11 17:58:03;;;;;;;3.73;3.17;;;;;;;;;;5035411;28;21002;-60
2021/05/11 18:00:31;;;;;;;4.07;3.50;;;;;;;;;;5035276;28;20449;-62
2021/05/11 18:02:59;;;;;;;3.97;3.67;;;;;;;;;;5035071;28;20495;-61